createdAt,value
2019-05-05T00:02:10.106Z,101152.61
2019-05-05T00:04:49.614Z,101160.28
2019-05-05T00:07:25.264Z,101158.00
2019-05-05T00:09:54.674Z,101160.47
2019-05-05T00:12:57.578Z,101165.99
2019-05-05T00:15:49.133Z,101173.61
2019-05-05T00:18:18.934Z,101178.45
2019-05-05T00:20:47.221Z,101176.58
2019-05-05T00:23:15.507Z,101187.36
2019-05-05T00:25:44.757Z,101201.64
2019-05-05T00:28:14.316Z,101198.80
2019-05-05T00:30:44.852Z,101190.69
2019-05-05T00:33:14.729Z,101186.45
2019-05-05T00:35:45.109Z,101174.30
2019-05-05T00:38:15.207Z,101177.98
2019-05-05T00:40:44.950Z,101169.37
2019-05-05T00:43:14.920Z,101179.86
2019-05-05T00:45:46.323Z,101183.65
2019-05-05T00:48:25.240Z,101189.06
2019-05-05T00:50:55.684Z,101188.92
2019-05-05T00:53:25.380Z,101184.42
2019-05-05T00:55:55.255Z,101195.56
2019-05-05T00:58:25.586Z,101186.45
2019-05-05T01:01:06.355Z,101183.55
2019-05-05T01:03:36.162Z,101189.52
2019-05-05T01:06:15.075Z,101191.80
2019-05-05T01:09:04.367Z,101196.06
2019-05-05T01:11:38.096Z,101195.68
2019-05-05T01:14:07.910Z,101186.22
2019-05-05T01:16:38.004Z,101182.34
2019-05-05T01:19:07.679Z,101189.16
2019-05-05T01:21:37.530Z,101177.52
2019-05-05T01:24:07.359Z,101187.80
2019-05-05T01:26:37.272Z,101181.78
2019-05-05T01:29:08.741Z,101168.41
2019-05-05T01:31:38.790Z,101170.05
2019-05-05T01:34:17.085Z,101168.20
2019-05-05T01:36:49.319Z,101164.09
2019-05-05T01:39:25.956Z,101168.91
2019-05-05T01:41:58.911Z,101171.41
2019-05-05T01:44:28.609Z,101177.16
2019-05-05T01:46:58.400Z,101173.44
2019-05-05T01:49:28.105Z,101184.93
2019-05-05T01:51:57.766Z,101179.31
2019-05-05T01:54:27.539Z,101182.19
2019-05-05T01:56:57.351Z,101181.56
2019-05-05T01:59:27.576Z,101191.06
2019-05-05T02:01:57.582Z,101188.66
2019-05-05T02:04:27.353Z,101187.17
2019-05-05T02:06:57.126Z,101184.64
2019-05-05T02:09:26.954Z,101187.52
2019-05-05T02:11:56.864Z,101189.88
2019-05-05T02:14:26.643Z,101191.48
2019-05-05T02:16:56.389Z,101195.12
2019-05-05T02:19:26.173Z,101193.92
2019-05-05T02:21:56.465Z,101194.04
2019-05-05T02:24:26.224Z,101194.48
2019-05-05T02:26:56.199Z,101198.30
2019-05-05T02:29:50.039Z,101191.95
2019-05-05T02:32:29.877Z,101191.60
2019-05-05T02:35:06.389Z,101197.45
2019-05-05T02:37:35.824Z,101196.85
2019-05-05T02:40:08.948Z,101193.97
2019-05-05T02:42:40.561Z,101201.05
2019-05-05T02:45:15.522Z,101205.86
2019-05-05T02:48:05.925Z,101205.12
2019-05-05T02:50:59.977Z,101204.83
2019-05-05T02:53:24.775Z,101202.19
2019-05-05T02:55:53.444Z,101207.11
2019-05-05T02:58:24.536Z,101209.48
2019-05-05T03:01:11.432Z,101204.80
2019-05-05T03:03:43.727Z,101209.59
2019-05-05T03:06:14.497Z,101212.91
2019-05-05T03:08:46.543Z,101207.49
2019-05-05T03:11:17.692Z,101217.45
2019-05-05T03:13:50.731Z,101218.25
2019-05-05T03:16:23.716Z,101220.91
2019-05-05T03:18:55.418Z,101211.12
2019-05-05T03:21:27.167Z,101211.98
2019-05-05T03:23:57.410Z,101218.94
2019-05-05T03:26:27.838Z,101220.61
2019-05-05T03:28:59.092Z,101223.00
2019-05-05T03:31:29.277Z,101222.12
2019-05-05T03:33:59.008Z,101219.05
2019-05-05T03:36:30.249Z,101222.81
2019-05-05T03:39:00.174Z,101224.84
2019-05-05T03:41:39.996Z,101224.40
2019-05-05T03:44:24.165Z,101223.41
2019-05-05T03:46:55.151Z,101230.17
2019-05-05T03:49:25.695Z,101232.67
2019-05-05T03:51:56.595Z,101235.20
2019-05-05T03:54:27.019Z,101234.77
2019-05-05T03:57:09.491Z,101229.89
2019-05-05T03:59:41.572Z,101224.22
2019-05-05T04:02:17.265Z,101237.09
2019-05-05T04:04:49.587Z,101227.10
2019-05-05T04:07:20.335Z,101231.81
2019-05-05T04:09:50.783Z,101227.25
2019-05-05T04:12:20.685Z,101232.22
2019-05-05T04:14:51.810Z,101230.41
2019-05-05T04:17:31.083Z,101239.69
2019-05-05T04:20:03.925Z,101245.66
2019-05-05T04:22:34.644Z,101250.69
2019-05-05T04:25:05.380Z,101247.69
2019-05-05T04:27:35.098Z,101255.75
2019-05-05T04:30:05.408Z,101258.33
2019-05-05T04:32:35.481Z,101260.86
2019-05-05T04:35:07.514Z,101260.86
2019-05-05T04:37:37.198Z,101259.27
2019-05-05T04:40:07.244Z,101263.92
2019-05-05T04:42:36.972Z,101267.13
2019-05-05T04:45:07.383Z,101269.47
2019-05-05T04:47:39.572Z,101267.56
2019-05-05T04:50:19.315Z,101272.59
2019-05-05T04:52:49.459Z,101272.46
2019-05-05T04:55:19.143Z,101277.48
2019-05-05T04:57:48.904Z,101280.17
2019-05-05T05:00:18.914Z,101274.45
2019-05-05T05:02:59.819Z,101273.48
2019-05-05T05:05:34.752Z,101271.59
2019-05-05T05:08:05.100Z,101271.37
2019-05-05T05:10:34.918Z,101279.88
2019-05-05T19:47:06.020Z,101593.78
2019-05-05T19:49:34.840Z,101601.98
2019-05-05T19:52:05.858Z,101593.75
2019-05-05T19:54:36.405Z,101595.56
2019-05-05T19:57:06.984Z,101588.86
2019-05-05T19:59:35.985Z,101590.41
2019-05-05T20:02:04.889Z,101596.97
2019-05-05T20:04:33.838Z,101604.64
2019-05-05T20:07:04.466Z,101602.41
2019-05-05T20:09:34.122Z,101595.81
2019-05-05T20:12:04.069Z,101594.82
2019-05-05T20:14:34.228Z,101592.70
2019-05-05T20:17:04.239Z,101590.72
2019-05-05T20:19:34.344Z,101593.18
2019-05-05T20:22:04.169Z,101589.38
2019-05-05T20:24:33.757Z,101589.05
2019-05-05T20:27:04.702Z,101589.11
2019-05-05T20:29:37.339Z,101584.83
2019-05-05T20:32:06.108Z,101593.42
2019-05-05T20:35:04.290Z,101593.97
2019-05-05T20:37:45.067Z,101591.16
2019-05-05T20:40:16.140Z,101593.31
2019-05-05T20:42:46.982Z,101596.19
2019-05-05T20:45:20.033Z,101591.57
2019-05-05T20:47:50.027Z,101593.18
2019-05-05T20:50:19.792Z,101596.25
2019-05-05T20:52:50.133Z,101598.02
2019-05-05T20:55:20.079Z,101592.83
2019-05-05T20:57:49.761Z,101594.44
2019-05-05T21:00:19.865Z,101591.80
2019-05-05T21:02:49.542Z,101593.72
2019-05-05T21:05:19.201Z,101592.42
2019-05-05T21:07:48.882Z,101592.69
2019-05-05T21:10:19.524Z,101594.95
2019-05-05T21:12:49.524Z,101592.42
2019-05-05T21:15:19.217Z,101593.44
2019-05-05T21:17:49.032Z,101592.58
2019-05-05T21:20:18.794Z,101591.70
2019-05-05T21:23:09.760Z,101588.17
2019-05-05T21:25:41.897Z,101587.96
2019-05-05T21:28:11.577Z,101587.59
2019-05-05T21:30:41.729Z,101582.39
2019-05-05T21:33:11.419Z,101581.88
2019-05-05T21:35:41.382Z,101586.28
2019-05-05T21:38:11.056Z,101586.83
2019-05-05T21:40:43.898Z,101586.96
2019-05-05T21:43:15.207Z,101586.23
2019-05-05T21:45:44.609Z,101591.15
2019-05-05T21:48:14.328Z,101583.52
2019-05-05T21:50:49.737Z,101583.45
2019-05-05T21:53:25.355Z,101587.29
2019-05-05T21:56:24.842Z,101591.97
2019-05-05T21:58:55.207Z,101589.06
2019-05-05T22:01:27.467Z,101591.09
2019-05-05T22:03:57.375Z,101593.82
2019-05-05T22:06:27.107Z,101592.59
2019-05-05T22:08:57.241Z,101591.67
2019-05-05T22:11:27.003Z,101586.41
2019-05-05T22:13:56.671Z,101584.32
2019-05-05T22:16:26.429Z,101589.86
2019-05-05T22:18:56.096Z,101585.97
2019-05-05T22:21:36.146Z,101582.58
2019-05-05T22:24:22.710Z,101579.26
2019-05-05T22:26:54.138Z,101581.16
2019-05-05T22:29:25.167Z,101580.94
2019-05-05T22:31:54.871Z,101573.78
2019-05-05T22:34:24.574Z,101577.39
2019-05-05T22:36:54.278Z,101577.89
2019-05-05T22:39:24.396Z,101571.50
2019-05-05T22:41:54.509Z,101572.45
2019-05-05T22:44:24.515Z,101576.53
2019-05-05T22:46:54.207Z,101574.09
2019-05-05T22:49:24.276Z,101571.36
2019-05-05T22:51:55.275Z,101569.89
2019-05-05T22:54:25.927Z,101568.89
2019-05-05T22:56:55.605Z,101574.85
2019-05-05T22:59:26.170Z,101569.81
2019-05-05T23:01:56.099Z,101565.54
2019-05-05T23:04:54.553Z,101562.89
2019-05-05T23:07:34.824Z,101565.84
2019-05-05T23:10:04.722Z,101566.63
2019-05-05T23:12:35.053Z,101558.79
2019-05-05T23:15:06.059Z,101562.30
2019-05-05T23:17:54.458Z,101559.64
2019-05-05T23:21:09.834Z,101557.34
2019-05-05T23:24:04.656Z,101555.92
2019-05-05T23:26:36.100Z,101553.84
2019-05-05T23:29:05.853Z,101548.77
2019-05-05T23:31:35.665Z,101555.19
2019-05-05T23:34:05.438Z,101556.91
2019-05-05T23:36:34.058Z,101555.63
2019-05-05T23:39:04.412Z,101548.77
2019-05-05T23:41:34.931Z,101551.74
2019-05-05T23:44:03.919Z,101545.73
2019-05-05T23:46:34.660Z,101550.57
2019-05-05T23:49:04.132Z,101546.33
2019-05-05T23:51:34.494Z,101545.95
2019-05-05T23:54:04.275Z,101548.13
2019-05-05T23:56:34.745Z,101551.63
2019-05-05T23:59:04.251Z,101550.84
